Time;durP1;ratioP1;P1;durP2;ratioP2;P2;SDS_P1;SDS_P2;PMS_P1;PMS_P2;Temp;Humidity;BMP_temperature;BMP_pressure;BME280_temperature;BME280_humidity;BME280_pressure;Samples;Min_cycle;Max_cycle;Signal;HPM_P1;HPM_P2
2023/07/12 00:00:53;;;;;;;47.13;28.77;;;;;;;22.68;62.15;99403.59;4964716;28;20485;-93
2023/07/12 00:03:19;;;;;;;41.28;25.63;;;;;;;22.73;62.38;99400.63;4947105;28;20552;-94
2023/07/12 00:05:45;;;;;;;37.45;22.58;;;;;;;22.85;62.20;99406.06;4932501;28;20018;-94
2023/07/12 00:08:25;;;;;;;34.97;23.90;;;;;;;22.84;62.51;99403.66;4948300;28;20031;-94
2023/07/12 00:10:53;;;;;;;33.17;22.02;;;;;;;22.81;62.26;99391.44;4932196;28;20034;-92
2023/07/12 00:13:23;;;;;;;22.80;14.68;;;;;;;22.78;63.05;99397.63;4949363;28;20022;-93
2023/07/12 00:15:53;;;;;;;20.38;14.15;;;;;;;22.62;63.78;99383.88;4948271;28;20405;-94
2023/07/12 00:18:20;;;;;;;21.95;14.05;;;;;;;22.69;62.85;99386.00;4947034;28;20477;-94
2023/07/12 00:20:50;;;;;;;25.40;16.60;;;;;;;22.73;62.64;99389.66;4931969;28;20474;-93
2023/07/12 00:23:16;;;;;;;29.60;18.17;;;;;;;22.85;62.49;99408.81;4962333;28;20073;-93
2023/07/12 00:25:42;;;;;;;20.38;13.63;;;;;;;22.73;63.32;99397.88;4929350;28;20046;-93
2023/07/12 00:28:43;;;;;;;20.75;14.18;;;;;;;22.67;63.77;99413.78;4933028;28;20057;-93
2023/07/12 00:31:09;;;;;;;19.60;12.93;;;;;;;22.53;64.09;99413.38;4908569;29;20051;-95
2023/07/12 00:33:35;;;;;;;19.10;11.15;;;;;;;22.48;64.54;99416.38;4908921;29;20054;-93
2023/07/12 00:36:01;;;;;;;17.13;11.13;;;;;;;22.38;64.46;99412.16;4892372;29;20043;-93
2023/07/12 00:38:26;;;;;;;18.02;12.13;;;;;;;22.46;63.87;99413.19;4908252;29;20051;-93
2023/07/12 00:41:01;;;;;;;14.32;10.93;;;;;;;22.46;64.23;99416.72;4908424;29;20110;-93
2023/07/12 00:43:36;;;;;;;14.25;10.75;;;;;;;22.34;64.93;99412.06;4924466;29;20035;-94
2023/07/12 00:46:24;;;;;;;16.63;11.38;;;;;;;22.38;64.78;99407.47;4908807;29;20116;-92
2023/07/12 00:48:50;;;;;;;22.25;12.23;;;;;;;22.29;64.98;99404.06;4904321;29;20050;-94
2023/07/12 00:51:29;;;;;;;15.70;12.32;;;;;;;22.32;64.79;99400.63;4892798;29;20044;-94
2023/07/12 00:53:57;;;;;;;19.05;14.13;;;;;;;22.25;65.16;99392.19;4908525;29;20032;-94
2023/07/12 00:56:23;;;;;;;20.77;14.75;;;;;;;22.18;65.15;99400.16;4908605;29;20067;-94
2023/07/12 00:58:54;;;;;;;22.15;13.45;;;;;;;22.19;65.38;99407.25;4893609;29;20470;-94
2023/07/12 01:01:26;;;;;;;23.30;14.65;;;;;;;22.11;65.44;99397.22;4932145;28;20043;-94
2023/07/12 01:03:55;;;;;;;19.17;13.82;;;;;;;21.97;65.60;99403.06;4945908;28;20496;-94
2023/07/12 01:06:20;;;;;;;17.50;11.68;;;;;;;21.89;65.89;99402.03;4946882;28;20034;-93
2023/07/12 01:08:46;;;;;;;16.25;11.63;;;;;;;21.94;66.04;99409.22;4930637;28;20075;-93
2023/07/12 01:11:13;;;;;;;15.90;11.35;;;;;;;21.86;66.12;99397.25;4931235;28;20038;-93
2023/07/12 01:13:43;;;;;;;18.23;10.77;;;;;;;21.77;66.27;99402.84;4946819;28;20039;-95
2023/07/12 01:16:10;;;;;;;14.00;10.52;;;;;;;21.75;66.37;99396.13;4947214;28;20528;-93
2023/07/12 01:18:38;;;;;;;16.42;11.23;;;;;;;21.85;65.74;99403.88;4930516;28;20027;-93
2023/07/12 01:21:14;;;;;;;17.60;10.18;;;;;;;21.73;66.62;99396.44;4980234;28;20031;-93
2023/07/12 01:23:40;;;;;;;15.20;10.85;;;;;;;21.82;66.12;99384.56;4961909;28;20034;-94
2023/07/12 01:26:25;;;;;;;24.95;11.88;;;;;;;21.80;66.78;99390.38;4929677;28;20043;-93
2023/07/12 01:28:55;;;;;;;15.68;10.85;;;;;;;21.63;66.71;99382.41;4945945;28;20134;-95
2023/07/12 01:31:22;;;;;;;16.45;10.55;;;;;;;21.59;67.17;99385.03;4931117;28;20050;-92
2023/07/12 01:33:48;;;;;;;13.82;10.40;;;;;;;21.44;67.43;99385.72;4961958;28;20089;-94
2023/07/12 01:36:14;;;;;;;12.02;9.05;;;;;;;21.20;68.17;99376.25;4960928;28;20043;-94
2023/07/12 01:38:40;;;;;;;13.05;9.05;;;;;;;21.11;68.92;99395.53;4930560;28;20037;-94
2023/07/12 01:41:05;;;;;;;12.90;9.68;;;;;;;21.09;69.09;99400.53;4929553;28;20037;-93
2023/07/12 01:43:31;;;;;;;14.05;9.95;;;;;;;21.08;68.73;99398.94;4945537;28;20077;-93
2023/07/12 01:46:03;;;;;;;16.55;9.57;;;;;;;21.01;69.35;99395.97;4929324;28;20033;-94
2023/07/12 01:48:31;;;;;;;16.73;10.80;;;;;;;21.08;68.39;99389.91;4929936;28;20022;-93
2023/07/12 01:50:57;;;;;;;13.75;10.07;;;;;;;21.17;68.29;99391.44;4929413;28;20105;-93
2023/07/12 01:53:22;;;;;;;16.08;10.32;;;;;;;21.12;69.03;99390.84;4945546;28;20034;-93
2023/07/12 01:55:48;;;;;;;16.63;10.00;;;;;;;21.14;68.44;99405.78;4930508;28;20559;-93
2023/07/12 01:58:14;;;;;;;15.15;10.57;;;;;;;21.20;67.97;99389.97;4929666;28;20039;-93
2023/07/12 02:00:40;;;;;;;16.20;10.57;;;;;;;21.22;69.18;99406.84;4944871;28;20038;-93
2023/07/12 02:03:06;;;;;;;16.25;11.13;;;;;;;21.09;69.00;99408.75;4946349;28;20094;-93
2023/07/12 02:05:32;;;;;;;21.00;15.73;;;;;;;21.14;69.60;99416.75;4944984;28;20166;-94
2023/07/12 02:08:01;;;;;;;17.00;11.48;;;;;;;21.16;69.78;99414.47;4962513;28;20470;-95
2023/07/12 02:10:29;;;;;;;13.48;9.70;;;;;;;21.01;69.85;99414.31;4945978;28;20029;-95
2023/07/12 02:12:55;;;;;;;15.63;11.68;;;;;;;21.03;69.78;99412.84;4928404;28;20058;-95
2023/07/12 02:15:21;;;;;;;20.17;11.20;;;;;;;21.03;70.15;99423.00;4946593;28;20093;-94
2023/07/12 02:17:47;;;;;;;16.50;10.40;;;;;;;20.91;70.18;99418.28;4929894;28;20070;-94
2023/07/12 02:20:13;;;;;;;15.85;10.70;;;;;;;20.88;70.57;99414.28;4945280;28;20122;-94
2023/07/12 02:22:43;;;;;;;16.48;11.88;;;;;;;20.91;70.01;99410.84;4930255;28;20027;-93
2023/07/12 02:25:10;;;;;;;15.93;11.35;;;;;;;20.94;70.51;99414.88;4946392;28;20034;-94
2023/07/12 02:27:37;;;;;;;18.40;10.73;;;;;;;20.84;70.66;99413.34;4944744;28;20062;-91
2023/07/12 02:30:09;;;;;;;17.15;11.48;;;;;;;20.81;70.61;99422.22;4945402;28;20046;-93
2023/07/12 02:32:34;;;;;;;;;;;;;;;20.79;70.75;99428.06;4931399;28;20114;-93
2023/07/12 02:35:02;;;;;;;16.70;10.73;;;;;;;20.69;70.45;99422.97;4961716;28;19945;-94
2023/07/12 02:37:31;;;;;;;15.80;11.75;;;;;;;20.72;70.27;99429.72;4946406;28;20041;-93
2023/07/12 02:39:57;;;;;;;17.85;11.52;;;;;;;20.59;70.50;99421.44;4928611;28;20038;-94
2023/07/12 02:42:27;;;;;;;16.55;10.55;;;;;;;20.62;71.22;99427.38;4945990;28;20499;-94
2023/07/12 02:44:53;;;;;;;16.88;11.23;;;;;;;20.56;71.60;99440.41;4945924;28;20501;-94
2023/07/12 02:47:19;;;;;;;16.00;11.73;;;;;;;20.42;72.04;99429.75;4945693;28;20401;-94
2023/07/12 02:49:45;;;;;;;17.10;11.00;;;;;;;20.41;71.61;99432.81;4945318;28;20097;-94
2023/07/12 02:52:11;;;;;;;19.90;11.02;;;;;;;20.43;71.80;99428.63;4944917;28;20038;-93
2023/07/12 02:54:37;;;;;;;16.13;10.95;;;;;;;20.34;72.03;99425.94;4944880;28;20030;-94
2023/07/12 02:57:03;;;;;;;16.35;11.57;;;;;;;20.42;72.22;99453.56;4945204;28;20023;-93
2023/07/12 02:59:30;;;;;;;14.77;11.13;;;;;;;20.35;72.29;99443.16;4945285;28;20027;-93
2023/07/12 03:01:56;;;;;;;17.60;11.52;;;;;;;20.40;72.25;99451.19;4960600;28;20481;-94
2023/07/12 03:04:22;;;;;;;15.02;11.50;;;;;;;20.43;71.99;99460.66;4948726;28;20077;-94
2023/07/12 03:06:51;;;;;;;15.43;10.55;;;;;;;20.35;72.18;99456.81;4931762;28;20082;-95
2023/07/12 03:09:17;;;;;;;15.10;10.88;;;;;;;20.38;72.60;99473.38;4966134;28;20089;-95
2023/07/12 03:11:45;;;;;;;18.70;11.50;;;;;;;20.37;72.60;99473.69;4949412;28;20097;-94
2023/07/12 03:14:11;;;;;;;15.95;11.48;;;;;;;20.31;72.22;99462.16;4934786;28;20478;-95
2023/07/12 03:16:37;;;;;;;16.67;11.60;;;;;;;20.37;72.14;99463.56;4950245;28;20065;-95
2023/07/12 03:19:03;;;;;;;14.32;11.15;;;;;;;20.27;72.03;99463.94;4948978;28;20512;-95
2023/07/12 03:21:29;;;;;;;18.75;11.23;;;;;;;20.34;72.60;99471.66;4948088;28;20121;-95
2023/07/12 03:23:55;;;;;;;21.67;11.43;;;;;;;20.33;72.41;99468.09;4965202;28;20035;-96
2023/07/12 03:26:21;;;;;;;22.65;13.13;;;;;;;20.31;72.57;99472.28;4963981;28;20050;-96
2023/07/12 03:28:47;;;;;;;18.95;13.32;;;;;;;20.32;72.83;99471.97;4933557;28;20053;-96
2023/07/12 03:31:17;;;;;;;17.67;13.18;;;;;;;20.33;72.63;99472.75;4948873;28;20041;-95
2023/07/12 03:33:46;;;;;;;23.25;14.95;;;;;;;20.25;73.02;99462.69;4964896;28;20027;-96
2023/07/12 03:36:13;;;;;;;20.65;13.93;;;;;;;20.35;73.26;99489.63;4949164;28;20098;-95
2023/07/12 03:38:39;;;;;;;19.83;13.98;;;;;;;20.29;73.28;99480.81;4948323;28;20015;-95
2023/07/12 03:41:15;;;;;;;18.27;13.80;;;;;;;20.34;73.36;99488.06;4949268;28;20456;-95
2023/07/12 03:43:42;;;;;;;19.92;14.15;;;;;;;20.13;73.61;99472.41;4927833;28;20037;-95
2023/07/12 03:46:09;;;;;;;20.88;13.05;;;;;;;20.23;74.23;99493.06;4931771;28;20420;-95
2023/07/12 03:48:38;;;;;;;19.33;13.10;;;;;;;20.27;73.52;99490.50;4950565;28;20027;-95
2023/07/12 03:51:04;;;;;;;21.05;12.05;;;;;;;20.25;73.71;99493.53;4932571;28;20039;-95
2023/07/12 03:53:30;;;;;;;19.90;11.93;;;;;;;20.36;73.23;99502.19;4947107;28;20113;-94
2023/07/12 03:55:58;;;;;;;19.77;12.82;;;;;;;20.25;73.41;99488.06;4965381;28;20101;-95
2023/07/12 03:58:34;;;;;;;15.35;11.57;;;;;;;20.34;73.37;99493.53;4932214;28;20031;-94
2023/07/12 04:01:03;;;;;;;15.77;11.45;;;;;;;20.23;73.30;99468.47;4931605;28;20369;-95
2023/07/12 04:03:33;;;;;;;24.23;11.52;;;;;;;20.33;73.16;99484.50;4934034;28;20454;-95
2023/07/12 04:06:01;;;;;;;28.95;13.18;;;;;;;20.37;73.13;99481.91;4949341;28;20068;-95
2023/07/12 04:08:31;;;;;;;15.95;11.48;;;;;;;20.62;72.80;99504.78;4963172;28;20042;-95
2023/07/12 04:10:57;;;;;;;19.67;11.52;;;;;;;20.57;72.17;99499.50;4933529;28;20050;-94
2023/07/12 04:13:23;;;;;;;21.80;11.77;;;;;;;20.72;72.09;99506.34;4933884;28;20019;-93
2023/07/12 04:16:02;;;;;;;16.20;11.80;;;;;;;20.73;71.68;99510.66;4929291;28;20118;-89
2023/07/12 04:18:28;;;;;;;23.10;11.88;;;;;;;20.66;71.50;99489.31;4947394;28;20029;-89
2023/07/12 04:20:58;;;;;;;18.70;12.13;;;;;;;20.87;71.75;99507.66;4946182;28;20125;-90
2023/07/12 04:23:24;;;;;;;21.85;12.35;;;;;;;20.91;71.83;99506.66;4960889;28;20085;-88
2023/07/12 04:26:01;;;;;;;17.20;11.80;;;;;;;21.15;71.03;99533.38;4944920;28;20158;-89
2023/07/12 04:28:27;;;;;;;18.80;11.80;;;;;;;21.20;70.53;99524.94;4960760;28;20629;-90
2023/07/12 04:30:54;;;;;;;21.77;12.50;;;;;;;21.27;70.46;99515.38;4945310;28;20037;-89
2023/07/12 04:33:20;;;;;;;22.45;14.15;;;;;;;21.36;70.39;99525.13;4929106;28;20035;-89
2023/07/12 04:35:45;;;;;;;20.67;13.02;;;;;;;21.45;70.15;99519.56;4945759;28;20038;-89
2023/07/12 04:38:13;;;;;;;20.08;12.57;;;;;;;21.47;68.91;99517.31;4928621;28;20493;-89
2023/07/12 04:40:40;;;;;;;18.35;11.95;;;;;;;21.54;68.90;99525.78;4944841;28;20092;-89
2023/07/12 04:43:06;;;;;;;18.17;11.27;;;;;;;21.59;68.09;99520.06;4960687;28;20033;-89
2023/07/12 04:45:34;;;;;;;18.23;12.02;;;;;;;21.74;67.76;99532.34;4963035;28;20581;-89
2023/07/12 04:48:00;;;;;;;16.20;11.15;;;;;;;21.73;68.18;99510.75;4947101;28;20037;-88
2023/07/12 04:50:27;;;;;;;16.85;11.32;;;;;;;21.72;67.64;99503.66;4945087;28;20057;-89
2023/07/12 04:52:55;;;;;;;18.88;11.25;;;;;;;21.81;67.41;99515.34;4961291;28;20037;-89
2023/07/12 04:55:29;;;;;;;18.75;12.02;;;;;;;21.82;67.71;99505.97;4929278;28;20019;-90
2023/07/12 04:58:08;;;;;;;16.35;10.90;;;;;;;22.02;67.61;99523.47;4929421;28;20034;-88
2023/07/12 05:00:34;;;;;;;15.35;11.75;;;;;;;21.94;66.40;99491.50;4951856;28;20039;-94
2023/07/12 05:03:07;;;;;;;16.73;11.73;;;;;;;22.18;66.57;99516.19;4963598;28;20464;-95
2023/07/12 05:06:12;;;;;;;23.83;12.65;;;;;;;22.28;65.93;99514.94;5037062;23;20051;-96
2023/07/12 05:08:38;;;;;;;20.75;13.15;;;;;;;22.31;66.02;99508.78;4907712;29;20043;-96
2023/07/12 05:11:14;;;;;;;21.33;12.55;;;;;;;22.60;65.62;99529.66;4950583;29;20023;-95
2023/07/12 05:13:39;;;;;;;20.65;12.65;;;;;;;22.46;65.25;99504.53;4932746;29;20095;-95
2023/07/12 05:16:11;;;;;;;15.60;12.30;;;;;;;22.68;65.26;99510.66;4935278;29;20038;-96
2023/07/12 05:18:37;;;;;;;22.85;11.95;;;;;;;22.95;64.63;99539.31;4967678;29;20031;-96
2023/07/12 05:21:03;;;;;;;21.77;13.77;;;;;;;22.83;63.35;99506.38;4936627;29;20398;-95
2023/07/12 05:23:59;;;;;;;26.52;16.10;;;;;;;23.18;63.28;99542.38;4929123;29;20039;-95
2023/07/12 05:26:27;;;;;;;19.85;15.38;;;;;;;23.09;62.42;99508.75;4965086;28;20046;-94
2023/07/12 05:28:53;;;;;;;34.25;25.55;;;;;;;23.35;61.88;99528.31;4949383;28;20046;-94
2023/07/12 05:31:22;;;;;;;22.92;14.55;;;;;;;23.47;60.80;99516.50;4912196;29;20040;-96
2023/07/12 05:33:55;;;;;;;17.70;12.27;;;;;;;23.77;60.10;99546.34;4899873;29;20068;-96
2023/07/12 05:36:25;;;;;;;15.68;11.68;;;;;;;23.79;59.54;99517.34;4898969;29;20044;-96
2023/07/12 05:38:56;;;;;;;13.93;10.25;;;;;;;23.98;59.66;99535.88;4895348;29;20605;-95
2023/07/12 05:45:56;;;;;;;15.15;10.52;;;;;;;24.05;59.14;99518.78;4818254;29;20137;-94
2023/07/12 05:51:14;;;;;;;18.38;11.95;;;;;;;24.10;58.67;99502.00;4939368;23;20523;-95
2023/07/12 05:53:39;;;;;;;;;;;;;;;24.38;58.31;99537.66;4881619;29;20055;-94
2023/07/12 05:56:05;;;;;;;23.35;11.75;;;;;;;24.39;58.87;99519.19;4898090;29;19947;-95
2023/07/12 05:58:44;;;;;;;16.80;10.63;;;;;;;24.53;57.22;99513.22;4888429;29;20384;-91
2023/07/12 06:01:10;;;;;;;25.60;8.13;;;;;;;24.60;57.89;99505.13;4884684;29;20024;-94
2023/07/12 06:03:36;;;;;;;13.23;8.30;;;;;;;24.79;56.58;99498.84;4883006;29;20064;-96
2023/07/12 06:06:05;;;;;;;12.15;7.80;;;;;;;24.84;55.88;99509.59;4880421;29;20032;-94
2023/07/12 06:08:35;;;;;;;16.15;8.07;;;;;;;25.00;56.36;99517.78;4886046;29;20038;-96
2023/07/12 06:11:08;;;;;;;9.57;6.80;;;;;;;25.15;54.57;99505.09;4868823;29;20052;-95
2023/07/12 06:13:37;;;;;;;13.30;7.00;;;;;;;25.45;54.98;99529.34;4886688;29;20032;-95
2023/07/12 06:16:03;;;;;;;9.25;6.78;;;;;;;25.43;54.70;99506.84;4884039;29;20012;-96
2023/07/12 06:18:58;;;;;;;10.05;6.88;;;;;;;25.57;52.82;99515.38;4885416;29;20024;-96
2023/07/12 06:21:33;;;;;;;10.98;6.55;;;;;;;25.76;52.67;99526.38;4886022;29;20059;-96
2023/07/12 06:35:00;;;;;;;15.40;7.68;;;;;;;26.41;51.83;99499.81;4941697;29;20059;-92
2023/07/12 06:37:28;;;;;;;12.32;8.60;;;;;;;26.65;51.19;99537.31;4890364;29;20033;-96
2023/07/12 06:39:54;;;;;;;9.00;6.88;;;;;;;26.61;50.40;99503.31;4865357;29;20101;-94
2023/07/12 06:42:52;;;;;;;12.15;7.25;;;;;;;26.68;50.13;99511.69;4850717;29;20146;-96
2023/07/12 06:45:51;;;;;;;10.55;7.25;;;;;;;27.04;49.46;99545.31;4897516;29;20111;-96
2023/07/12 06:51:53;;;;;;;16.98;7.00;;;;;;;26.92;49.71;99499.38;4889689;29;20069;-95
2023/07/12 06:54:29;;;;;;;15.48;7.28;;;;;;;27.00;50.05;99494.75;4860491;29;20500;-96
2023/07/12 06:56:57;;;;;;;18.67;8.82;;;;;;;27.17;49.88;99513.50;4840778;29;20270;-96
2023/07/12 07:18:38;;;;;;;7.03;5.65;;;;;;;27.95;47.20;99498.09;4850429;29;20147;-94
2023/07/12 07:21:19;;;;;;;10.57;5.40;;;;;;;28.11;46.17;99503.38;4842041;29;20042;-95
2023/07/12 07:24:26;;;;;;;8.50;5.78;;;;;;;28.12;45.79;99480.03;4841737;29;20029;-96
2023/07/12 07:27:33;;;;;;;8.75;5.35;;;;;;;28.35;45.97;99500.00;5657884;23;20056;-93
2023/07/12 07:30:20;;;;;;;10.15;6.32;;;;;;;28.43;45.60;99506.38;4917718;29;20035;-94
2023/07/12 07:33:02;;;;;;;7.82;5.57;;;;;;;28.69;45.03;99510.91;4931191;29;20047;-94
2023/07/12 07:49:01;;;;;;;8.93;6.65;;;;;;;29.11;43.90;99503.19;5088125;23;20048;-93
2023/07/12 07:54:49;;;;;;;9.02;6.25;;;;;;;29.23;44.43;99510.38;4910503;29;20647;-89
2023/07/12 07:57:22;;;;;;;8.88;7.00;;;;;;;29.28;44.78;99508.03;4915244;29;20047;-89
2023/07/12 08:00:14;;;;;;;9.10;6.75;;;;;;;29.40;44.45;99501.28;4914211;28;20024;-91
2023/07/12 08:03:06;;;;;;;10.55;6.72;;;;;;;29.71;43.38;99515.66;4927745;29;20054;-89
2023/07/12 08:05:33;;;;;;;7.60;5.63;;;;;;;29.60;42.85;99498.97;4934896;29;20142;-90
2023/07/12 08:08:01;;;;;;;7.93;5.70;;;;;;;29.63;43.25;99498.16;4922853;29;20032;-88
2023/07/12 08:10:31;;;;;;;10.38;4.97;;;;;;;29.80;42.88;99507.72;4902893;29;20034;-88
2023/07/12 08:13:00;;;;;;;12.70;5.23;;;;;;;29.86;44.92;99514.47;4906699;29;20390;-91
2023/07/12 08:15:53;;;;;;;12.05;5.68;;;;;;;29.92;44.41;99507.31;4916439;29;20034;-96
2023/07/12 08:18:21;;;;;;;7.45;5.43;;;;;;;30.15;43.75;99517.25;4944742;29;20035;-96
2023/07/12 08:20:47;;;;;;;8.20;5.53;;;;;;;30.19;42.88;99507.72;4921535;29;20058;-96
2023/07/12 08:23:15;;;;;;;8.18;5.25;;;;;;;30.19;43.14;99507.72;4937046;29;20036;-96
2023/07/12 08:25:42;;;;;;;9.88;4.95;;;;;;;30.22;43.16;99506.16;4918835;29;20118;-96
2023/07/12 08:28:09;;;;;;;8.45;4.60;;;;;;;30.35;43.25;99528.78;4920526;29;20035;-95
2023/07/12 08:30:39;;;;;;;8.70;5.30;;;;;;;30.36;43.31;99510.91;4933975;29;20031;-94
2023/07/12 08:33:05;;;;;;;8.68;5.55;;;;;;;30.42;44.20;99515.66;4933223;29;20031;-96
2023/07/12 08:35:39;;;;;;;8.52;5.20;;;;;;;30.45;43.95;99511.28;4906687;29;20035;-94
2023/07/12 08:38:09;;;;;;;7.05;5.47;;;;;;;30.66;43.28;99516.00;5527026;23;20055;-92
2023/07/12 08:50:27;;;;;;;5.60;4.60;;;;;;;30.91;40.64;99506.81;4905119;29;20052;-96
2023/07/12 08:53:07;;;;;;;6.15;4.78;;;;;;;31.03;40.50;99500.81;4888992;29;20043;-96
2023/07/12 09:15:20;;;;;;;8.02;4.93;;;;;;;32.05;38.64;99518.50;4952246;29;20083;-96
2023/07/12 09:18:08;;;;;;;7.82;4.60;;;;;;;31.87;37.80;99505.47;4948720;29;20035;-96
2023/07/12 09:20:38;;;;;;;6.97;4.68;;;;;;;31.88;37.87;99503.50;4916529;29;20019;-95
2023/07/12 09:23:39;;;;;;;8.00;4.90;;;;;;;32.02;38.13;99520.09;4935507;29;20498;-96
2023/07/12 09:26:37;;;;;;;6.68;4.75;;;;;;;31.90;38.16;99496.31;5024190;23;20063;-96
2023/07/12 09:29:26;;;;;;;10.10;4.70;;;;;;;32.07;37.89;99508.53;4968227;28;20099;-96
2023/07/12 09:32:25;;;;;;;6.20;4.80;;;;;;;32.05;38.20;99490.66;4924519;29;20122;-95
2023/07/12 09:34:51;;;;;;;10.57;5.22;;;;;;;32.24;37.88;99498.41;4943910;29;20035;-95
2023/07/12 09:37:22;;;;;;;6.57;4.80;;;;;;;32.32;37.45;99488.78;4938151;29;20094;-95
2023/07/12 09:43:14;;;;;;;8.65;5.10;;;;;;;32.27;39.20;99502.38;4949928;28;19909;-94
2023/07/12 09:45:42;;;;;;;7.65;4.95;;;;;;;32.08;39.64;99507.31;4944208;29;20054;-95
2023/07/12 09:48:25;;;;;;;10.38;5.07;;;;;;;31.99;39.89;99493.84;4912661;29;20059;-94
2023/07/12 09:51:07;;;;;;;6.57;4.90;;;;;;;32.11;39.43;99508.50;4927869;29;20055;-94
2023/07/12 09:53:52;;;;;;;9.35;4.70;;;;;;;32.08;39.02;99504.53;4912913;29;20020;-93
2023/07/12 09:56:29;;;;;;;9.32;4.82;;;;;;;31.92;40.63;99513.41;4916695;29;20506;-95
2023/07/12 09:59:43;;;;;;;8.90;4.90;;;;;;;31.87;40.39;99508.25;4948310;29;20051;-95
2023/07/12 10:02:11;;;;;;;9.55;5.47;;;;;;;31.85;40.76;99509.88;4949880;29;20107;-96
2023/07/12 10:04:46;;;;;;;9.50;5.13;;;;;;;31.91;39.99;99503.44;4947959;29;20036;-96
2023/07/12 10:11:18;;;;;;;5.93;5.03;;;;;;;31.92;40.24;99496.69;4947780;29;20071;-96
2023/07/12 10:14:11;;;;;;;8.18;5.38;;;;;;;32.15;39.63;99484.19;4908295;29;20028;-96
2023/07/12 10:16:45;;;;;;;9.70;4.93;;;;;;;31.92;37.72;99468.06;4901573;29;20040;-96
2023/07/12 10:20:10;;;;;;;7.10;4.78;;;;;;;31.90;37.01;99457.31;4916982;29;20022;-96
2023/07/12 10:26:40;;;;;;;7.88;4.88;;;;;;;32.48;35.29;99479.06;4867994;29;20063;-94
2023/07/12 10:29:14;;;;;;;6.35;4.25;;;;;;;32.45;35.84;99457.59;4871065;29;20045;-94
2023/07/12 10:31:48;;;;;;;8.27;5.03;;;;;;;32.16;36.36;99430.81;4871135;29;20049;-95
2023/07/12 10:34:58;;;;;;;7.43;5.32;;;;;;;32.57;36.92;99466.25;4874106;29;20037;-95
2023/07/12 10:47:47;;;;;;;8.38;5.45;;;;;;;32.21;38.43;99449.09;5965172;23;20050;-96
2023/07/12 10:51:01;;;;;;;6.50;5.25;;;;;;;32.48;36.28;99467.91;4907210;29;20111;-95
2023/07/12 10:53:27;;;;;;;8.07;5.55;;;;;;;32.37;36.41;99435.38;4837811;29;20046;-92
2023/07/12 10:56:51;;;;;;;8.25;5.57;;;;;;;32.41;36.64;99432.53;4893339;29;20123;-92
2023/07/12 10:59:35;;;;;;;9.48;5.70;;;;;;;32.49;37.18;99466.72;4907817;29;20045;-95
2023/07/12 11:02:03;;;;;;;11.68;9.75;;;;;;;32.68;37.21;99463.31;4929493;29;20147;-95
2023/07/12 11:04:36;;;;;;;7.93;5.63;;;;;;;32.63;37.14;99468.59;4927976;29;20059;-94
2023/07/12 11:07:07;;;;;;;12.93;6.60;;;;;;;32.73;36.07;99470.44;4911242;29;20395;-95
2023/07/12 11:09:49;;;;;;;10.07;6.65;;;;;;;32.85;35.10;99463.50;4928838;29;20035;-95
2023/07/12 11:12:28;;;;;;;9.55;5.80;;;;;;;32.74;35.91;99458.06;4928060;29;20067;-94
2023/07/12 11:15:27;;;;;;;9.55;5.78;;;;;;;32.67;35.79;99435.88;4947528;29;20054;-93
2023/07/12 11:18:11;;;;;;;11.73;6.97;;;;;;;33.08;36.20;99449.69;4915328;29;20062;-95
2023/07/12 11:21:04;;;;;;;9.55;6.35;;;;;;;33.30;35.47;99447.38;4921667;29;20131;-94
2023/07/12 11:23:42;;;;;;;8.43;6.20;;;;;;;33.43;35.25;99428.03;4905876;29;20095;-96
2023/07/12 11:26:41;;;;;;;6.72;5.57;;;;;;;33.77;35.34;99449.47;4918334;29;20032;-96
2023/07/12 11:29:47;;;;;;;7.72;5.72;;;;;;;34.08;34.74;99463.31;4940416;29;20040;-96
2023/07/12 11:35:20;;;;;;;8.98;5.70;;;;;;;34.09;34.50;99451.69;5821811;23;20023;31
2023/07/12 11:38:07;;;;;;;;;;;;;;;;;;;;;
2023/07/12 11:40:41;;;;;;;9.93;5.30;;;;;;;34.18;33.33;99457.56;4904773;29;20056;-96
2023/07/12 11:43:25;;;;;;;9.35;6.20;;;;;;;34.17;34.02;99452.38;4893688;29;20384;-95
2023/07/12 11:46:12;;;;;;;8.05;5.28;;;;;;;33.88;33.91;99432.50;4911361;29;20461;-96
2023/07/12 11:49:00;;;;;;;14.77;5.65;;;;;;;33.67;33.31;99428.09;4885326;29;20068;-96
2023/07/12 11:52:19;;;;;;;;;;;;;;;;;;;;;
2023/07/12 11:56:10;;;;;;;;;;;;;;;;;;;;;
2023/07/12 11:58:37;;;;;;;7.63;5.55;;;;;;;33.65;33.75;99427.72;4868207;29;20057;-96
2023/07/12 12:01:02;;;;;;;10.45;5.28;;;;;;;33.69;33.37;99420.06;4875842;29;20040;-94
2023/07/12 12:03:34;;;;;;;7.60;5.93;;;;;;;33.73;33.26;99420.81;4877395;29;20020;-95
2023/07/12 12:06:03;;;;;;;9.45;5.57;;;;;;;33.66;33.05;99410.56;4872958;29;20033;-94
2023/07/12 12:08:34;;;;;;;10.40;5.78;;;;;;;33.60;32.49;99409.44;4874635;29;20029;-95
2023/07/12 12:11:51;;;;;;;8.60;5.30;;;;;;;33.69;32.95;99420.88;4875145;29;20567;-94
2023/07/12 12:17:38;;;;;;;13.77;5.95;;;;;;;33.65;33.27;99420.13;4920672;29;20099;-95
2023/07/12 12:20:20;;;;;;;10.60;6.97;;;;;;;33.75;32.23;99416.38;4901244;29;20029;-96
2023/07/12 12:23:15;;;;;;;7.93;6.03;;;;;;;33.59;33.11;99403.03;4895178;29;20032;-96
2023/07/12 12:25:51;;;;;;;11.30;6.15;;;;;;;33.70;32.96;99393.72;4896981;29;20043;-96
2023/07/12 12:28:27;;;;;;;10.35;5.88;;;;;;;33.64;32.94;99403.78;4884259;29;20035;-96
2023/07/12 12:37:40;;;;;;;6.68;5.95;;;;;;;34.04;32.16;99417.88;4953838;28;20110;-95
2023/07/12 12:40:28;;;;;;;7.93;6.10;;;;;;;33.93;32.53;99396.50;4918304;29;20040;-94
2023/07/12 12:43:05;;;;;;;12.18;6.30;;;;;;;34.04;33.20;99410.28;4936020;29;20035;-93
2023/07/12 12:45:34;;;;;;;12.00;6.40;;;;;;;34.20;32.68;99390.84;4917687;29;20036;-94
2023/07/12 12:48:09;;;;;;;10.90;6.55;;;;;;;34.17;33.85;99386.09;4914027;29;20047;-95
2023/07/12 13:11:27;;;;;;;11.25;5.70;;;;;;;35.65;29.96;99391.25;4948595;29;20059;-90
2023/07/12 13:13:53;;;;;;;11.80;5.90;;;;;;;35.70;29.43;99380.31;4926065;29;20073;-89
2023/07/12 13:20:01;;;;;;;9.05;5.80;;;;;;;35.62;29.72;99387.28;4950471;29;20122;-90
2023/07/12 13:22:27;;;;;;;8.27;5.78;;;;;;;35.79;29.59;99383.25;4919932;29;20090;-89
2023/07/12 13:24:56;;;;;;;10.55;6.45;;;;;;;35.88;30.38;99384.66;4921616;29;20028;-90
2023/07/12 13:27:52;;;;;;;9.90;5.95;;;;;;;35.88;29.32;99360.19;4935026;29;20027;-89
2023/07/12 13:30:38;;;;;;;12.18;5.88;;;;;;;36.11;29.17;99395.63;4868007;29;20060;-89
2023/07/12 13:33:13;;;;;;;11.07;5.90;;;;;;;36.21;29.17;99386.19;4937857;29;20033;-90
2023/07/12 13:39:16;;;;;;;8.57;5.70;;;;;;;36.45;28.17;99366.25;4920382;29;20046;-94
2023/07/12 13:41:45;;;;;;;9.55;5.45;;;;;;;36.56;27.89;99351.91;4927414;29;20043;-93
2023/07/12 13:44:17;;;;;;;7.85;5.50;;;;;;;37.03;27.36;99368.13;4916134;29;20007;-96
2023/07/12 13:47:14;;;;;;;9.38;5.80;;;;;;;37.29;27.18;99370.91;4911029;29;20378;-96
2023/07/12 13:49:45;;;;;;;10.02;5.50;;;;;;;37.48;26.12;99338.19;4953270;29;20445;-90
2023/07/12 13:52:22;;;;;;;;;;;;;;;;;;;;;
2023/07/12 13:54:54;;;;;;;9.80;5.63;;;;;;;37.96;24.98;99341.75;4947772;29;20088;-94
2023/07/12 13:57:32;;;;;;;7.82;5.95;;;;;;;37.90;26.16;99335.94;4929028;29;20095;-95
2023/07/12 14:00:53;;;;;;;;;;;;;;;;;;;;;
2023/07/12 14:03:09;;;;;;;7.25;5.28;;;;;;;38.37;24.32;99318.16;4902208;29;20100;-94
2023/07/12 14:05:34;;;;;;;7.75;5.60;;;;;;;38.89;23.91;99329.00;4912044;29;20083;-94
2023/07/12 14:12:06;;;;;;;;;;;;;;;;;;;;;
2023/07/12 14:14:34;;;;;;;9.93;6.10;;;;;;;39.69;22.88;99316.84;4864989;29;20100;-94
2023/07/12 14:17:08;;;;;;;9.55;5.68;;;;;;;39.80;23.84;99307.91;4855496;29;20044;-96
2023/07/12 14:19:33;;;;;;;9.85;6.18;;;;;;;40.00;23.75;99322.31;4850553;29;20056;-95
2023/07/12 14:22:01;;;;;;;8.95;5.90;;;;;;;40.20;21.43;99332.31;4848983;29;20033;-95
2023/07/12 14:24:29;;;;;;;8.68;6.32;;;;;;;40.37;21.27;99333.56;4872432;29;20111;-93
2023/07/12 14:27:36;;;;;;;6.55;5.22;;;;;;;40.19;21.36;99319.47;4905933;29;20024;-94
2023/07/12 14:30:06;;;;;;;8.65;5.75;;;;;;;40.19;21.39;99325.88;4925577;29;20032;-95
2023/07/12 14:32:40;;;;;;;7.45;5.63;;;;;;;40.07;21.72;99311.97;4915532;29;20068;-94
2023/07/12 14:35:11;;;;;;;11.88;6.13;;;;;;;40.75;21.73;99337.06;4913265;29;20035;-94
2023/07/12 14:37:36;;;;;;;10.25;6.10;;;;;;;40.74;21.91;99341.94;4911049;29;20040;-96